Time;durP1;ratioP1;P1;durP2;ratioP2;P2;SDS_P1;SDS_P2;PMS_P1;PMS_P2;Temp;Humidity;BMP_temperature;BMP_pressure;BME280_temperature;BME280_humidity;BME280_pressure;Samples;Min_cycle;Max_cycle;Signal;HPM_P1;HPM_P2
2022/04/19 00:01:06;;;;;;;42.67;28.98;;;11.00;99.90;;;;;;5055009;28;20021;-77
2022/04/19 00:03:32;;;;;;;41.35;27.95;;;11.20;99.90;;;;;;5054188;28;20029;-76
2022/04/19 00:05:58;;;;;;;43.30;27.90;;;11.30;99.90;;;;;;5054562;28;20047;-75
2022/04/19 00:08:24;;;;;;;41.90;27.70;;;11.10;99.90;;;;;;5054590;28;20159;-76
2022/04/19 00:10:49;;;;;;;39.55;27.35;;;11.00;99.90;;;;;;5054772;28;20474;-76
2022/04/19 00:13:20;;;;;;;43.38;29.17;;;11.10;99.90;;;;;;5054377;28;20462;-78
2022/04/19 00:15:46;;;;;;;43.65;30.23;;;11.10;99.90;;;;;;5054480;28;20071;-78
2022/04/19 00:18:12;;;;;;;42.83;30.25;;;11.10;99.90;;;;;;5054016;28;20461;-78
2022/04/19 00:20:39;;;;;;;43.00;31.15;;;11.20;99.90;;;;;;5035982;28;20389;-78
2022/04/19 00:23:12;;;;;;;39.00;28.55;;;11.20;99.90;;;;;;5054524;28;20120;-79
2022/04/19 00:25:42;;;;;;;45.22;30.75;;;11.10;99.90;;;;;;5036564;28;20036;-78
2022/04/19 00:28:08;;;;;;;47.33;31.40;;;11.10;99.90;;;;;;5054348;28;20064;-76
2022/04/19 00:30:34;;;;;;;44.58;30.92;;;11.10;99.90;;;;;;5054163;28;20059;-73
2022/04/19 00:33:00;;;;;;;45.50;32.05;;;11.00;99.90;;;;;;5053884;28;20077;-77
2022/04/19 00:35:28;;;;;;;42.33;30.48;;;10.90;99.90;;;;;;5054202;28;20029;-78
2022/04/19 00:37:54;;;;;;;49.00;31.50;;;10.80;99.90;;;;;;5054046;28;20028;-78
2022/04/19 00:40:20;;;;;;;49.13;32.38;;;11.00;99.90;;;;;;5036422;28;20484;-78
2022/04/19 00:42:47;;;;;;;44.60;29.70;;;11.30;99.90;;;;;;5019533;28;20013;-77
2022/04/19 00:45:13;;;;;;;45.72;32.83;;;11.30;99.90;;;;;;5053884;28;20029;-77
2022/04/19 00:47:39;;;;;;;44.40;31.50;;;11.20;99.90;;;;;;5053597;28;20029;-75
2022/04/19 00:50:07;;;;;;;44.28;30.95;;;11.00;99.90;;;;;;5035942;28;20021;-76
2022/04/19 00:52:37;;;;;;;47.58;33.05;;;11.00;99.90;;;;;;5036157;28;20040;-76
2022/04/19 00:55:05;;;;;;;45.15;33.10;;;11.00;99.90;;;;;;5035934;28;20393;-78
2022/04/19 00:57:40;;;;;;;49.78;34.13;;;10.80;99.90;;;;;;5035794;28;20397;-76
2022/04/19 01:00:12;;;;;;;42.88;32.67;;;10.70;99.90;;;;;;5035628;28;20021;-77
2022/04/19 01:02:41;;;;;;;44.35;32.13;;;10.80;99.90;;;;;;5035241;28;20040;-79
2022/04/19 01:05:10;;;;;;;45.72;32.10;;;10.70;99.90;;;;;;5035663;28;20449;-79
2022/04/19 01:07:37;;;;;;;47.95;33.45;;;10.70;99.90;;;;;;5035623;28;20037;-79
2022/04/19 01:10:04;;;;;;;45.45;31.50;;;10.90;99.90;;;;;;5035403;28;20120;-77
2022/04/19 01:15:18;;;;;;;45.10;31.83;;;11.10;99.90;;;;;;5035552;28;20036;-74
2022/04/19 01:18:02;;;;;;;42.28;30.25;;;10.90;99.90;;;;;;5035192;28;20552;-77
2022/04/19 01:20:29;;;;;;;45.45;33.45;;;10.80;99.90;;;;;;5053342;28;20043;-78
2022/04/19 01:22:57;;;;;;;45.03;33.13;;;10.70;99.90;;;;;;5035281;28;20075;-77
2022/04/19 01:25:26;;;;;;;48.75;32.28;;;10.90;99.90;;;;;;5035437;28;20021;-77
2022/04/19 01:27:54;;;;;;;47.10;32.97;;;11.20;99.90;;;;;;5035488;28;20032;-78
2022/04/19 01:30:20;;;;;;;48.25;33.72;;;11.30;99.90;;;;;;5034910;28;20037;-78
2022/04/19 01:32:48;;;;;;;45.72;32.85;;;11.40;99.90;;;;;;5019023;28;20462;-77
2022/04/19 01:35:16;;;;;;;45.13;31.48;;;11.30;99.90;;;;;;5034934;28;20029;-78
2022/04/19 01:37:50;;;;;;;51.67;32.55;;;11.20;99.90;;;;;;5035169;28;20385;-75
2022/04/19 01:40:21;;;;;;;47.78;32.67;;;11.60;99.90;;;;;;5027195;28;20030;-79
2022/04/19 01:43:01;;;;;;;47.58;32.53;;;11.30;99.90;;;;;;5031881;28;20057;-79
2022/04/19 01:45:34;;;;;;;47.15;32.63;;;10.90;99.90;;;;;;5031220;28;20021;-78
2022/04/19 01:48:04;;;;;;;45.47;32.38;;;10.90;99.90;;;;;;5025978;28;20067;-79
2022/04/19 01:50:31;;;;;;;46.65;32.42;;;11.20;99.90;;;;;;5034861;28;20107;-79
2022/04/19 01:53:02;;;;;;;51.20;33.55;;;10.90;99.90;;;;;;5035411;28;20091;-77
2022/04/19 01:55:30;;;;;;;47.10;32.80;;;10.70;99.90;;;;;;5034828;28;20021;-78
2022/04/19 01:58:00;;;;;;;53.08;33.35;;;10.80;99.90;;;;;;5034941;28;20058;-78
2022/04/19 02:00:35;;;;;;;47.15;32.22;;;10.40;99.90;;;;;;5034571;28;20025;-77
2022/04/19 02:03:03;;;;;;;43.42;32.22;;;10.30;99.90;;;;;;5052610;28;20481;-77
2022/04/19 02:05:30;;;;;;;45.30;31.83;;;10.40;99.90;;;;;;5034559;28;20041;-78
2022/04/19 02:07:57;;;;;;;46.97;31.52;;;10.30;99.90;;;;;;5034678;28;20083;-78
2022/04/19 02:10:24;;;;;;;44.70;32.05;;;10.20;99.90;;;;;;5034789;28;20040;-78
2022/04/19 02:12:52;;;;;;;47.45;32.42;;;10.10;99.90;;;;;;5034671;28;20087;-78
2022/04/19 02:15:35;;;;;;;49.88;32.72;;;10.00;99.90;;;;;;5052501;28;20037;-78
2022/04/19 02:18:27;;;;;;;50.15;34.15;;;9.80;99.90;;;;;;5049473;28;20029;-78
2022/04/19 02:20:54;;;;;;;51.22;34.20;;;10.00;99.90;;;;;;5034349;28;20036;-78
2022/04/19 02:23:19;;;;;;;46.40;32.92;;;10.40;99.90;;;;;;5034691;28;20021;-77
2022/04/19 02:25:46;;;;;;;49.90;32.17;;;10.60;99.90;;;;;;5034628;28;20047;-78
2022/04/19 02:28:13;;;;;;;52.15;32.70;;;10.60;99.90;;;;;;5034755;28;20112;-78
2022/04/19 02:30:50;;;;;;;48.80;32.20;;;10.40;99.90;;;;;;5034092;28;20130;-78
2022/04/19 02:33:23;;;;;;;45.38;32.35;;;10.80;99.90;;;;;;5034646;28;20109;-78
2022/04/19 02:35:49;;;;;;;48.00;33.30;;;10.80;99.90;;;;;;5052516;28;20116;-77
2022/04/19 02:38:15;;;;;;;47.33;32.65;;;10.30;99.90;;;;;;5034707;28;20441;-78
2022/04/19 02:40:45;;;;;;;51.67;33.75;;;9.80;99.90;;;;;;5034401;28;20039;-77
2022/04/19 02:43:13;;;;;;;49.75;33.80;;;9.70;99.90;;;;;;5035520;28;20022;-78
2022/04/19 02:45:41;;;;;;;47.63;36.00;;;9.60;99.90;;;;;;5038326;28;20028;-76
2022/04/19 02:48:08;;;;;;;54.78;35.58;;;9.70;99.90;;;;;;5038333;28;20087;-78
2022/04/19 02:50:48;;;;;;;49.03;35.58;;;9.60;99.90;;;;;;5037977;28;20036;-78
2022/04/19 02:53:14;;;;;;;50.08;34.42;;;9.50;99.90;;;;;;5038227;28;20029;-77
2022/04/19 02:55:41;;;;;;;50.90;35.28;;;9.70;99.90;;;;;;5038015;28;20021;-77
2022/04/19 02:58:07;;;;;;;51.25;35.63;;;9.80;99.90;;;;;;5037979;28;20036;-78
2022/04/19 03:00:37;;;;;;;51.05;36.10;;;9.90;99.90;;;;;;5021815;28;20120;-78
2022/04/19 03:03:03;;;;;;;53.30;35.53;;;10.10;99.90;;;;;;5037889;28;20032;-77
2022/04/19 03:05:30;;;;;;;49.13;34.92;;;10.40;99.90;;;;;;5037805;28;20025;-78
2022/04/19 03:07:56;;;;;;;54.60;35.78;;;10.20;99.90;;;;;;5055756;28;20044;-78
2022/04/19 03:10:23;;;;;;;50.63;37.80;;;9.80;99.90;;;;;;5038013;28;20048;-76
2022/04/19 03:12:51;;;;;;;52.08;36.08;;;9.80;99.90;;;;;;5037439;28;20021;-77
2022/04/19 03:15:20;;;;;;;54.90;35.78;;;10.10;99.90;;;;;;5037860;28;20392;-78
2022/04/19 03:17:47;;;;;;;53.15;36.63;;;10.40;99.90;;;;;;5037618;28;20051;-78
2022/04/19 03:20:15;;;;;;;60.70;38.75;;;10.20;99.90;;;;;;5037769;28;20021;-78
2022/04/19 03:28:17;;;;;;;57.63;36.58;;;9.40;99.90;;;;;;5037320;28;20117;-78
2022/04/19 03:30:44;;;;;;;61.50;38.75;;;9.80;99.90;;;;;;5037258;28;20044;-77
2022/04/19 03:33:12;;;;;;;55.58;37.60;;;10.00;99.90;;;;;;5037438;28;20060;-77
2022/04/19 03:35:38;;;;;;;52.90;35.95;;;10.10;99.90;;;;;;5021137;28;20075;-77
2022/04/19 03:38:05;;;;;;;55.60;37.53;;;10.20;99.90;;;;;;5037303;28;20032;-77
2022/04/19 03:40:31;;;;;;;52.92;36.88;;;10.40;99.90;;;;;;5037203;28;20025;-76
2022/04/19 03:42:57;;;;;;;51.40;38.05;;;10.50;99.90;;;;;;5036685;28;20513;-78
2022/04/19 03:45:24;;;;;;;57.70;37.20;;;10.30;99.90;;;;;;5037430;28;20478;-77
2022/04/19 03:47:51;;;;;;;63.80;39.17;;;10.30;99.90;;;;;;5036782;28;20029;-77
2022/04/19 03:50:16;;;;;;;53.33;37.00;;;10.30;99.90;;;;;;5037270;28;20455;-77
2022/04/19 03:52:44;;;;;;;64.30;37.80;;;9.90;99.90;;;;;;5036951;28;20025;-76
2022/04/19 03:55:10;;;;;;;55.67;35.85;;;10.00;99.90;;;;;;5037009;28;20090;-77
2022/04/19 03:57:38;;;;;;;66.38;39.25;;;10.10;99.90;;;;;;5020252;28;20489;-77
2022/04/19 04:00:06;;;;;;;58.83;39.25;;;10.20;99.90;;;;;;5037053;28;20020;-77
2022/04/19 04:02:42;;;;;;;58.17;37.72;;;10.10;99.90;;;;;;5054549;28;20127;-77
2022/04/19 04:05:12;;;;;;;50.75;37.50;;;10.10;99.90;;;;;;5036651;28;20108;-76
2022/04/19 04:07:40;;;;;;;52.20;36.83;;;10.10;99.90;;;;;;5036812;28;20462;-76
2022/04/19 04:10:07;;;;;;;54.50;35.58;;;10.00;99.90;;;;;;5036488;28;20031;-76
2022/04/19 04:12:33;;;;;;;53.13;35.42;;;10.00;99.90;;;;;;5036609;28;20033;-74
2022/04/19 04:15:01;;;;;;;56.13;35.85;;;10.00;99.90;;;;;;5036743;28;20023;-76
2022/04/19 04:17:27;;;;;;;44.80;33.45;;;10.00;99.90;;;;;;5036545;28;20074;-74
2022/04/19 04:19:53;;;;;;;51.40;35.00;;;9.80;99.90;;;;;;5036598;28;20108;-76
2022/04/19 04:22:21;;;;;;;50.08;34.08;;;9.70;99.90;;;;;;5036324;28;20037;-76
2022/04/19 04:24:47;;;;;;;51.80;33.08;;;9.70;99.90;;;;;;5036203;28;20473;-75
2022/04/19 04:27:13;;;;;;;49.65;33.97;;;9.70;99.90;;;;;;5036903;28;20021;-78
2022/04/19 04:29:40;;;;;;;47.38;33.42;;;9.80;99.90;;;;;;5036271;28;20078;-73
2022/04/19 04:32:06;;;;;;;45.72;32.92;;;9.70;99.90;;;;;;5036281;28;20067;-76
2022/04/19 04:34:33;;;;;;;60.03;34.42;;;9.70;99.90;;;;;;5036264;28;20494;-76
2022/04/19 04:37:00;;;;;;;50.90;34.13;;;9.70;99.90;;;;;;5036173;28;20052;-77
2022/04/19 04:39:25;;;;;;;52.92;35.30;;;9.40;99.90;;;;;;5036008;28;20021;-78
2022/04/19 04:42:20;;;;;;;51.30;34.63;;;9.20;99.90;;;;;;5036422;28;20049;-77
2022/04/19 04:44:46;;;;;;;51.83;35.55;;;9.30;99.90;;;;;;5036005;28;20025;-76
2022/04/19 04:50:00;;;;;;;54.72;35.53;;;9.30;99.90;;;;;;5033854;28;20091;-78
2022/04/19 04:52:26;;;;;;;50.90;33.72;;;9.30;99.90;;;;;;5033791;28;20029;-78
2022/04/19 04:54:54;;;;;;;58.03;34.83;;;9.50;99.90;;;;;;5015801;28;20477;-78
2022/04/19 04:57:26;;;;;;;57.53;35.53;;;9.50;99.90;;;;;;5016310;28;20033;-77
2022/04/19 04:59:52;;;;;;;52.08;34.92;;;9.20;99.90;;;;;;5015955;28;20021;-77
2022/04/19 05:02:23;;;;;;;50.13;34.47;;;9.40;99.90;;;;;;5018791;28;20469;-77
2022/04/19 05:04:49;;;;;;;53.60;36.67;;;9.60;99.90;;;;;;5035391;28;20542;-77
2022/04/19 05:07:15;;;;;;;59.45;36.53;;;9.60;99.90;;;;;;5052998;28;20116;-78
2022/04/19 05:09:46;;;;;;;48.43;33.10;;;9.70;99.90;;;;;;5035202;28;20017;-77
2022/04/19 05:12:11;;;;;;;59.10;36.45;;;9.60;99.90;;;;;;5035707;28;20875;-77
2022/04/19 05:14:39;;;;;;;62.72;36.20;;;10.00;99.90;;;;;;5018975;28;20040;-76
2022/04/19 05:17:05;;;;;;;59.40;38.05;;;10.00;99.90;;;;;;5035647;28;20033;-77
2022/04/19 05:19:33;;;;;;;52.95;34.85;;;10.00;99.90;;;;;;5035508;28;20032;-74
2022/04/19 05:21:59;;;;;;;55.55;33.63;;;9.90;99.90;;;;;;5035466;28;20033;-77
2022/04/19 05:24:24;;;;;;;54.50;33.42;;;9.80;99.90;;;;;;5034863;28;20060;-78
2022/04/19 05:26:52;;;;;;;52.53;33.67;;;9.90;99.90;;;;;;5035329;28;20060;-77
2022/04/19 05:29:18;;;;;;;52.15;33.75;;;10.20;99.90;;;;;;5053049;28;20435;-77
2022/04/19 05:31:44;;;;;;;51.30;35.65;;;10.20;99.90;;;;;;5035066;28;20071;-73
2022/04/19 05:34:10;;;;;;;48.90;32.70;;;10.30;99.90;;;;;;5035096;28;20029;-76
2022/04/19 05:36:36;;;;;;;47.92;34.42;;;10.40;99.90;;;;;;5035103;28;20435;-75
2022/04/19 05:39:02;;;;;;;55.13;35.45;;;10.40;99.90;;;;;;5034808;28;20104;-76
2022/04/19 05:41:28;;;;;;;53.20;33.75;;;10.60;99.90;;;;;;5053180;28;20028;-76
2022/04/19 05:43:55;;;;;;;56.17;34.78;;;10.50;99.90;;;;;;5035020;28;20025;-71
2022/04/19 05:46:21;;;;;;;52.92;33.92;;;10.70;99.90;;;;;;5034867;28;20032;-74
2022/04/19 05:48:47;;;;;;;55.25;34.97;;;10.70;99.90;;;;;;5034956;28;20367;-74
2022/04/19 05:51:14;;;;;;;61.70;35.90;;;10.60;99.90;;;;;;5034867;28;20561;-73
2022/04/19 05:53:41;;;;;;;53.80;35.95;;;10.60;99.90;;;;;;5034626;28;20029;-73
2022/04/19 05:56:09;;;;;;;51.53;36.17;;;10.60;99.90;;;;;;5034801;28;20060;-74
2022/04/19 05:58:35;;;;;;;52.08;35.33;;;10.40;99.90;;;;;;5034853;28;20055;-75
2022/04/19 06:01:01;;;;;;;58.72;36.13;;;10.70;99.90;;;;;;5052711;28;20479;-75
2022/04/19 06:06:16;;;;;;;52.95;37.78;;;11.30;99.90;;;;;;5034274;28;20080;-76
2022/04/19 06:08:43;;;;;;;63.85;37.85;;;11.50;99.90;;;;;;5034855;28;20021;-71
2022/04/19 06:11:12;;;;;;;59.85;39.08;;;11.60;99.90;;;;;;5034714;28;20032;-73
2022/04/19 06:13:40;;;;;;;57.15;36.03;;;11.80;99.90;;;;;;5034805;28;20029;-71
2022/04/19 06:16:06;;;;;;;52.33;31.67;;;12.00;99.90;;;;;;5034665;28;20035;-76
2022/04/19 06:18:34;;;;;;;48.97;26.90;;;12.30;99.90;;;;;;5036906;28;20025;-75
2022/04/19 06:21:11;;;;;;;51.72;24.65;;;12.40;99.90;;;;;;5038281;28;20025;-72
2022/04/19 06:23:37;;;;;;;47.47;24.45;;;12.40;99.90;;;;;;5038930;28;20025;-77
2022/04/19 06:26:03;;;;;;;49.03;23.92;;;12.60;99.90;;;;;;5038531;28;20488;-76
2022/04/19 06:28:31;;;;;;;49.85;23.45;;;12.80;99.90;;;;;;5022548;28;20409;-77
2022/04/19 06:31:15;;;;;;;48.08;21.80;;;12.70;99.90;;;;;;5056330;28;20036;-74
2022/04/19 06:33:44;;;;;;;40.30;19.38;;;12.90;99.90;;;;;;5038592;28;20025;-74
2022/04/19 06:36:10;;;;;;;38.55;19.67;;;12.80;99.90;;;;;;5038142;28;20051;-74
2022/04/19 06:38:36;;;;;;;32.88;19.25;;;13.00;99.90;;;;;;5038429;28;20529;-73
2022/04/19 06:41:02;;;;;;;45.55;19.75;;;13.30;99.90;;;;;;5038090;28;20091;-75
2022/04/19 06:43:31;;;;;;;37.78;19.65;;;13.50;99.90;;;;;;5038509;28;20063;-75
2022/04/19 06:46:13;;;;;;;31.60;18.90;;;13.50;99.90;;;;;;5038350;28;20029;-74
2022/04/19 06:48:40;;;;;;;37.20;20.10;;;13.60;99.90;;;;;;5038105;28;20029;-73
2022/04/19 06:51:05;;;;;;;42.65;19.35;;;13.60;99.90;;;;;;5037788;28;20465;-75
2022/04/19 06:53:32;;;;;;;33.35;16.83;;;13.70;99.90;;;;;;5056148;28;20048;-73
2022/04/19 06:56:04;;;;;;;27.00;15.45;;;14.10;99.90;;;;;;5037902;28;20071;-77
2022/04/19 06:58:30;;;;;;;26.27;13.27;;;14.10;99.90;;;;;;5038369;28;20021;-76
2022/04/19 07:00:57;;;;;;;26.25;13.50;;;14.30;99.90;;;;;;5037925;28;20536;-74
2022/04/19 07:03:24;;;;;;;20.15;12.63;;;14.30;99.90;;;;;;5038155;28;20017;-71
2022/04/19 07:06:08;;;;;;;28.85;12.80;;;14.10;98.70;;;;;;5055405;28;20106;-76
2022/04/19 07:08:35;;;;;;;34.17;13.30;;;14.20;98.20;;;;;;5037941;28;20128;-76
2022/04/19 07:11:03;;;;;;;21.67;13.82;;;14.40;98.70;;;;;;5037509;28;20124;-78
2022/04/19 07:13:50;;;;;;;17.67;12.80;;;14.80;98.40;;;;;;5037832;28;20466;-78
2022/04/19 07:16:45;;;;;;;23.13;13.98;;;15.10;97.20;;;;;;4983895;28;20046;-77
2022/04/19 07:19:13;;;;;;;24.98;12.30;;;15.80;96.80;;;;;;5055152;28;20516;-77
2022/04/19 07:27:08;;;;;;;26.80;12.70;;;16.30;94.60;;;;;;5055394;28;20499;-76
2022/04/19 07:29:35;;;;;;;24.77;14.13;;;16.50;94.30;;;;;;5037062;28;20103;-77
2022/04/19 07:32:02;;;;;;;28.25;12.38;;;16.90;92.90;;;;;;5037213;28;20412;-76
2022/04/19 07:34:49;;;;;;;23.98;12.38;;;17.00;92.30;;;;;;5054627;28;20053;-76
2022/04/19 07:37:15;;;;;;;18.80;10.82;;;17.00;91.60;;;;;;5037401;28;20033;-76
2022/04/19 07:39:41;;;;;;;21.00;10.70;;;16.90;90.50;;;;;;5037270;28;20089;-77
2022/04/19 07:42:08;;;;;;;21.63;11.90;;;16.90;90.30;;;;;;5055097;28;20431;-77
2022/04/19 07:44:34;;;;;;;20.45;11.68;;;17.10;89.70;;;;;;5037852;28;20024;-77
2022/04/19 07:46:59;;;;;;;22.90;11.20;;;17.10;88.90;;;;;;5054712;28;20036;-77
2022/04/19 07:49:25;;;;;;;14.68;10.38;;;16.90;89.10;;;;;;5037136;28;20489;-78
2022/04/19 07:51:52;;;;;;;22.75;10.57;;;17.20;90.00;;;;;;5036935;28;20055;-78
2022/04/19 07:54:17;;;;;;;23.15;10.13;;;17.20;88.60;;;;;;5055193;28;20112;-78
2022/04/19 07:56:43;;;;;;;22.17;11.13;;;17.60;85.50;;;;;;5037163;28;20021;-78
2022/04/19 07:59:09;;;;;;;20.63;11.43;;;18.00;84.40;;;;;;5036742;28;20433;-77
2022/04/19 08:01:35;;;;;;;27.88;11.07;;;17.70;85.90;;;;;;5037107;28;20036;-77
2022/04/19 08:04:01;;;;;;;18.95;11.90;;;17.90;87.00;;;;;;5036257;28;20041;-78
2022/04/19 08:06:28;;;;;;;26.65;12.27;;;17.90;86.10;;;;;;5036893;28;20029;-78
2022/04/19 08:08:54;;;;;;;24.23;12.18;;;18.30;86.30;;;;;;5036793;28;20108;-76
2022/04/19 08:11:20;;;;;;;35.75;12.75;;;18.00;86.00;;;;;;5036765;28;20428;-77
2022/04/19 08:13:48;;;;;;;23.15;13.43;;;18.20;83.90;;;;;;5036575;28;20017;-77
2022/04/19 08:16:14;;;;;;;26.45;12.85;;;18.50;85.20;;;;;;5054756;28;20104;-76
2022/04/19 08:18:40;;;;;;;27.58;12.95;;;19.10;83.80;;;;;;5054186;28;20370;-77
2022/04/19 08:21:06;;;;;;;29.55;13.30;;;19.00;82.50;;;;;;5036702;28;20035;-78
2022/04/19 08:23:32;;;;;;;28.48;13.32;;;18.60;82.90;;;;;;5054419;28;20099;-77
2022/04/19 08:26:05;;;;;;;21.67;12.30;;;18.80;81.40;;;;;;5036489;28;20508;-78
2022/04/19 08:28:32;;;;;;;24.33;12.05;;;18.80;83.00;;;;;;5036258;28;20025;-75
2022/04/19 08:30:58;;;;;;;25.15;12.18;;;18.70;82.30;;;;;;5053841;28;20036;-78
2022/04/19 08:33:29;;;;;;;24.58;12.20;;;18.80;81.40;;;;;;5036315;28;20056;-78
2022/04/19 08:35:55;;;;;;;17.70;9.55;;;18.80;81.60;;;;;;5036365;28;20033;-78
2022/04/19 08:38:22;;;;;;;20.15;9.98;;;18.90;81.80;;;;;;5036404;28;20373;-78
2022/04/19 08:40:48;;;;;;;22.50;11.38;;;19.50;82.50;;;;;;5035169;28;20075;-78
2022/04/19 08:43:14;;;;;;;16.50;9.75;;;19.40;81.20;;;;;;5036009;28;20468;-80
2022/04/19 08:45:39;;;;;;;15.85;9.55;;;19.20;80.40;;;;;;5053864;28;20032;-78
2022/04/19 08:48:09;;;;;;;12.07;8.02;;;19.50;79.30;;;;;;5053776;28;20114;-78
2022/04/19 08:50:35;;;;;;;14.52;8.70;;;19.70;78.10;;;;;;5053721;28;20388;-78
2022/04/19 08:58:30;;;;;;;15.90;7.97;;;20.40;76.50;;;;;;5053766;28;20051;-77
2022/04/19 09:00:55;;;;;;;11.57;8.18;;;20.30;77.80;;;;;;5053296;28;20462;-77
2022/04/19 09:03:22;;;;;;;14.30;7.90;;;20.20;77.50;;;;;;5053512;28;20021;-77
2022/04/19 09:05:49;;;;;;;16.63;7.63;;;20.30;76.60;;;;;;5035736;28;20199;-77
2022/04/19 09:08:15;;;;;;;14.98;8.45;;;20.30;74.40;;;;;;5053604;28;20068;-77
2022/04/19 09:10:41;;;;;;;13.27;7.28;;;20.80;76.40;;;;;;5053414;28;20064;-77
2022/04/19 09:13:09;;;;;;;13.95;7.45;;;20.50;76.10;;;;;;5053507;28;20389;-77
2022/04/19 09:15:42;;;;;;;13.95;6.78;;;20.50;76.60;;;;;;5053191;28;20128;-78
2022/04/19 09:18:15;;;;;;;11.80;6.65;;;20.50;75.00;;;;;;5053503;28;20036;-76
2022/04/19 09:20:41;;;;;;;15.60;7.20;;;20.40;74.90;;;;;;5053251;28;20100;-77
2022/04/19 09:23:08;;;;;;;11.23;6.80;;;20.80;74.60;;;;;;5053392;28;20531;-78
2022/04/19 09:25:35;;;;;;;11.30;7.43;;;20.90;75.00;;;;;;5053327;28;20377;-78
2022/04/19 09:28:04;;;;;;;16.27;6.93;;;21.00;73.80;;;;;;5053259;28;20037;-78
2022/04/19 09:30:32;;;;;;;9.55;6.70;;;21.40;71.80;;;;;;5052697;28;20033;-78
2022/04/19 09:33:04;;;;;;;13.70;5.97;;;21.40;73.10;;;;;;5053057;28;20056;-78
2022/04/19 09:35:32;;;;;;;12.30;5.47;;;21.30;71.60;;;;;;5053345;28;20029;-78
2022/04/19 09:37:58;;;;;;;11.32;5.93;;;21.10;71.90;;;;;;5052902;28;20037;-78
2022/04/19 09:40:28;;;;;;;20.40;6.72;;;21.20;71.30;;;;;;5052907;28;20017;-75
2022/04/19 09:42:57;;;;;;;10.45;5.65;;;21.30;70.60;;;;;;5052846;28;20041;-71
2022/04/19 09:45:27;;;;;;;8.27;5.45;;;21.40;69.20;;;;;;5052724;28;20029;-76
2022/04/19 09:47:53;;;;;;;15.20;6.00;;;21.10;67.90;;;;;;5052847;28;20419;-73
2022/04/19 09:50:20;;;;;;;7.68;5.53;;;21.20;67.60;;;;;;5052797;28;20036;-75
2022/04/19 09:52:50;;;;;;;12.55;6.32;;;21.40;68.80;;;;;;5052718;28;20037;-77
2022/04/19 09:55:17;;;;;;;11.57;6.75;;;21.00;67.40;;;;;;5052769;28;20029;-77
2022/04/19 09:57:45;;;;;;;12.73;5.32;;;21.30;68.50;;;;;;5052925;28;20500;-75
2022/04/19 10:00:16;;;;;;;10.82;5.22;;;21.30;66.30;;;;;;5052263;28;20520;-75
2022/04/19 10:08:21;;;;;;;16.17;6.47;;;21.50;65.90;;;;;;5052683;28;20485;-75
2022/04/19 10:10:52;;;;;;;8.82;5.60;;;22.10;66.10;;;;;;5052519;28;20033;-72
2022/04/19 10:13:23;;;;;;;7.97;4.93;;;22.50;65.00;;;;;;5052493;28;20049;-76
2022/04/19 10:15:49;;;;;;;12.15;5.30;;;22.80;62.50;;;;;;5052558;28;20465;-76
2022/04/19 10:18:16;;;;;;;11.13;6.15;;;22.20;64.00;;;;;;5052532;28;20120;-75
2022/04/19 10:20:50;;;;;;;12.05;6.05;;;22.30;63.90;;;;;;5052487;28;20025;-70
2022/04/19 10:23:17;;;;;;;11.10;6.63;;;22.60;65.80;;;;;;5052599;28;20040;-73
2022/04/19 10:25:46;;;;;;;9.68;6.65;;;22.90;63.60;;;;;;5052470;28;20039;-72
2022/04/19 10:28:41;;;;;;;10.95;6.28;;;23.10;64.00;;;;;;5052530;28;20385;-74
2022/04/19 10:31:08;;;;;;;13.10;6.63;;;23.40;62.40;;;;;;5039202;28;20149;-71
2022/04/19 10:33:44;;;;;;;12.45;6.43;;;22.80;62.70;;;;;;5034665;28;20055;-74
2022/04/19 10:36:14;;;;;;;10.90;6.22;;;23.40;63.10;;;;;;5034385;28;20052;-76
2022/04/19 10:38:41;;;;;;;10.63;6.45;;;23.30;62.20;;;;;;5052527;28;20039;-75
2022/04/19 10:41:07;;;;;;;9.40;6.32;;;23.20;61.80;;;;;;5052273;28;20036;-74
2022/04/19 10:43:33;;;;;;;11.02;5.90;;;23.10;63.20;;;;;;5052027;28;20021;-77
2022/04/19 10:46:16;;;;;;;9.65;6.10;;;22.80;62.20;;;;;;5052215;28;20497;-76
2022/04/19 10:49:19;;;;;;;12.00;6.00;;;22.70;60.00;;;;;;5052363;28;20539;-75
2022/04/19 10:51:45;;;;;;;9.02;6.22;;;22.50;61.80;;;;;;5052018;28;20041;-74
2022/04/19 10:54:12;;;;;;;12.77;7.00;;;22.40;63.50;;;;;;5034487;28;20059;-75
2022/04/19 10:57:13;;;;;;;13.70;5.85;;;22.90;63.30;;;;;;5051887;28;20091;-74
2022/04/19 10:59:39;;;;;;;8.90;5.78;;;23.30;63.30;;;;;;5052092;28;20116;-77
2022/04/19 11:02:35;;;;;;;11.00;5.53;;;23.60;63.30;;;;;;5052100;28;20104;-69
2022/04/19 11:05:02;;;;;;;9.38;5.88;;;23.40;61.80;;;;;;5054459;28;20064;-72
2022/04/19 11:07:48;;;;;;;10.10;5.30;;;23.40;61.10;;;;;;5055734;28;20037;-76
2022/04/19 11:10:37;;;;;;;9.15;5.57;;;24.00;61.20;;;;;;5055604;28;20043;-78
2022/04/19 11:13:02;;;;;;;10.18;5.75;;;24.40;61.20;;;;;;5055747;28;20045;-78
2022/04/19 11:15:37;;;;;;;8.93;5.55;;;24.60;62.60;;;;;;5055853;28;20078;-75
2022/04/19 11:18:24;;;;;;;12.05;6.00;;;24.10;61.90;;;;;;5055537;28;20029;-75
2022/04/19 11:20:56;;;;;;;9.02;5.95;;;24.20;61.40;;;;;;5037747;28;20028;-77
2022/04/19 11:23:26;;;;;;;9.55;6.82;;;24.80;62.70;;;;;;5055468;28;20095;-73
2022/04/19 11:25:54;;;;;;;8.93;6.78;;;24.00;60.30;;;;;;5055474;28;20469;-76
2022/04/19 11:28:30;;;;;;;9.75;6.63;;;23.80;60.50;;;;;;5055385;28;20056;-76
2022/04/19 11:30:56;;;;;;;13.52;7.40;;;24.10;60.20;;;;;;5055566;28;20041;-79
2022/04/19 11:33:22;;;;;;;10.88;6.97;;;23.70;61.20;;;;;;5055446;28;20033;-79
2022/04/19 11:36:02;;;;;;;12.25;7.82;;;23.80;61.70;;;;;;5055576;28;20040;-78
2022/04/19 11:38:29;;;;;;;12.27;7.57;;;24.30;61.10;;;;;;5055285;28;20025;-79
2022/04/19 11:49:27;;;;;;;16.48;7.45;;;25.10;59.40;;;;;;4991344;28;20039;-80
2022/04/19 11:52:08;;;;;;;13.00;7.85;;;25.40;59.90;;;;;;5035322;28;20510;-80
2022/04/19 11:54:34;;;;;;;10.93;6.77;;;25.10;59.50;;;;;;5019852;28;20089;-80
2022/04/19 11:57:10;;;;;;;19.38;7.85;;;25.00;58.50;;;;;;5054055;28;20033;-79
2022/04/19 11:59:37;;;;;;;12.65;7.63;;;25.20;59.50;;;;;;5053736;28;20029;-79
2022/04/19 12:02:05;;;;;;;12.65;8.00;;;25.30;59.30;;;;;;5025059;28;20022;-76
2022/04/19 12:04:31;;;;;;;12.50;7.10;;;25.60;57.10;;;;;;5037888;28;20078;-80
2022/04/19 12:07:01;;;;;;;14.52;7.38;;;25.50;58.40;;;;;;5054899;28;20489;-80
2022/04/19 12:09:28;;;;;;;11.07;7.93;;;26.10;58.10;;;;;;5054414;28;20037;-79
2022/04/19 12:11:54;;;;;;;12.23;7.32;;;26.50;58.60;;;;;;5036660;28;20481;-80
2022/04/19 12:14:31;;;;;;;15.93;7.22;;;26.30;58.30;;;;;;5054712;28;20381;-80
2022/04/19 12:17:01;;;;;;;16.30;7.72;;;26.20;56.70;;;;;;5036881;28;20033;-80
2022/04/19 12:19:40;;;;;;;10.98;6.40;;;25.80;56.70;;;;;;5054212;28;20040;-79
2022/04/19 12:22:23;;;;;;;9.88;6.60;;;25.20;55.90;;;;;;5054177;28;20037;-79
2022/04/19 12:24:58;;;;;;;9.50;5.72;;;26.00;56.50;;;;;;5054211;28;20033;-75
2022/04/19 12:27:37;;;;;;;11.30;5.65;;;26.40;55.70;;;;;;5036709;28;20025;-78
2022/04/19 12:30:12;;;;;;;10.48;6.82;;;26.00;55.30;;;;;;5054168;28;20029;-79
2022/04/19 12:32:53;;;;;;;8.00;5.80;;;25.70;54.50;;;;;;5054408;28;20033;-73
2022/04/19 12:35:24;;;;;;;7.07;5.25;;;27.00;56.20;;;;;;5054361;28;20036;-75
2022/04/19 12:38:09;;;;;;;10.27;5.15;;;27.20;54.40;;;;;;5036084;28;20031;-80
2022/04/19 12:40:37;;;;;;;13.48;6.20;;;27.30;53.80;;;;;;5036395;28;20028;-79
2022/04/19 12:43:03;;;;;;;9.38;5.72;;;28.10;53.80;;;;;;5036147;28;20500;-80
2022/04/19 12:45:35;;;;;;;9.05;6.07;;;28.70;55.50;;;;;;5053950;28;20060;-80
2022/04/19 12:48:02;;;;;;;11.98;6.22;;;27.70;52.70;;;;;;5053889;28;20044;-79
2022/04/19 12:50:28;;;;;;;11.98;6.13;;;27.60;55.20;;;;;;5036044;28;20017;-80
2022/04/19 12:52:54;;;;;;;9.63;6.88;;;27.80;54.40;;;;;;5035860;28;20033;-80
2022/04/19 12:55:30;;;;;;;8.90;6.22;;;28.80;54.20;;;;;;5053975;28;20466;-80
2022/04/19 12:58:08;;;;;;;10.32;5.78;;;29.20;54.00;;;;;;5053749;28;20029;-81
2022/04/19 13:00:35;;;;;;;14.13;6.70;;;28.90;53.90;;;;;;5035714;28;20025;-81
2022/04/19 13:03:01;;;;;;;10.90;6.40;;;28.40;54.00;;;;;;5053634;28;20154;-81
2022/04/19 13:13:41;;;;;;;10.05;6.05;;;27.70;53.10;;;;;;5053368;28;20025;-79
2022/04/19 13:16:07;;;;;;;10.55;5.90;;;28.10;53.70;;;;;;5053618;28;20029;-80
2022/04/19 13:18:33;;;;;;;14.00;6.03;;;28.70;52.90;;;;;;5053408;28;20053;-80
2022/04/19 13:20:59;;;;;;;9.30;6.07;;;29.30;53.10;;;;;;5053085;28;20029;-80
2022/04/19 13:23:26;;;;;;;11.52;5.55;;;29.60;51.30;;;;;;5053261;28;20067;-80
2022/04/19 13:25:53;;;;;;;8.10;5.97;;;30.40;52.00;;;;;;5053225;28;20025;-81
2022/04/19 13:28:19;;;;;;;9.88;6.00;;;30.90;51.70;;;;;;5052816;28;20508;-80
2022/04/19 13:30:45;;;;;;;7.22;5.00;;;31.00;50.90;;;;;;5053137;28;20068;-79